sensor_id;sensor_type;location;lat;lon;timestamp;P1;durP1;ratioP1;P2;durP2;ratioP2
13439;SDS011;6792;57.698;11.946;2022-12-10T00:02:03;1.93;;;1.70;;
13439;SDS011;6792;57.698;11.946;2022-12-10T00:04:33;2.50;;;1.87;;
13439;SDS011;6792;57.698;11.946;2022-12-10T00:07:02;2.67;;;1.90;;
13439;SDS011;6792;57.698;11.946;2022-12-10T00:09:31;2.27;;;1.60;;
13439;SDS011;6792;57.698;11.946;2022-12-10T00:12:04;1.83;;;1.67;;
13439;SDS011;6792;57.698;11.946;2022-12-10T00:14:33;2.13;;;1.63;;
13439;SDS011;6792;57.698;11.946;2022-12-10T00:17:05;2.30;;;1.83;;
13439;SDS011;6792;57.698;11.946;2022-12-10T00:19:34;2.03;;;1.43;;
13439;SDS011;6792;57.698;11.946;2022-12-10T00:22:03;4.47;;;1.60;;
13439;SDS011;6792;57.698;11.946;2022-12-10T00:24:34;2.17;;;1.90;;
13439;SDS011;6792;57.698;11.946;2022-12-10T00:27:03;1.73;;;1.63;;
13439;SDS011;6792;57.698;11.946;2022-12-10T00:29:35;2.37;;;1.47;;
13439;SDS011;6792;57.698;11.946;2022-12-10T00:32:05;1.53;;;1.30;;
13439;SDS011;6792;57.698;11.946;2022-12-10T00:34:34;1.73;;;1.57;;
13439;SDS011;6792;57.698;11.946;2022-12-10T00:37:03;1.80;;;1.40;;
13439;SDS011;6792;57.698;11.946;2022-12-10T00:39:33;2.00;;;1.83;;
13439;SDS011;6792;57.698;11.946;2022-12-10T00:42:04;2.97;;;1.80;;
13439;SDS011;6792;57.698;11.946;2022-12-10T00:44:33;3.97;;;2.10;;
13439;SDS011;6792;57.698;11.946;2022-12-10T00:47:06;3.53;;;2.20;;
13439;SDS011;6792;57.698;11.946;2022-12-10T00:49:35;4.30;;;2.13;;
13439;SDS011;6792;57.698;11.946;2022-12-10T00:52:04;2.03;;;1.70;;
13439;SDS011;6792;57.698;11.946;2022-12-10T00:54:33;3.07;;;2.20;;
13439;SDS011;6792;57.698;11.946;2022-12-10T00:57:06;3.77;;;2.30;;
13439;SDS011;6792;57.698;11.946;2022-12-10T00:59:35;4.50;;;2.53;;
13439;SDS011;6792;57.698;11.946;2022-12-10T01:02:04;2.37;;;2.00;;
13439;SDS011;6792;57.698;11.946;2022-12-10T01:04:35;5.10;;;1.80;;
13439;SDS011;6792;57.698;11.946;2022-12-10T01:07:04;3.00;;;2.10;;
13439;SDS011;6792;57.698;11.946;2022-12-10T01:09:35;2.83;;;2.30;;
13439;SDS011;6792;57.698;11.946;2022-12-10T01:12:05;2.20;;;1.73;;
13439;SDS011;6792;57.698;11.946;2022-12-10T01:14:35;1.87;;;1.60;;
13439;SDS011;6792;57.698;11.946;2022-12-10T01:17:04;3.87;;;2.13;;
13439;SDS011;6792;57.698;11.946;2022-12-10T01:19:34;2.60;;;2.20;;
13439;SDS011;6792;57.698;11.946;2022-12-10T01:22:03;3.13;;;2.00;;
13439;SDS011;6792;57.698;11.946;2022-12-10T01:24:33;2.43;;;1.87;;
13439;SDS011;6792;57.698;11.946;2022-12-10T01:27:04;3.43;;;2.30;;
13439;SDS011;6792;57.698;11.946;2022-12-10T01:29:36;2.00;;;1.83;;
13439;SDS011;6792;57.698;11.946;2022-12-10T01:32:05;2.70;;;2.10;;
13439;SDS011;6792;57.698;11.946;2022-12-10T01:34:34;3.97;;;1.97;;
13439;SDS011;6792;57.698;11.946;2022-12-10T01:37:03;2.50;;;1.83;;
13439;SDS011;6792;57.698;11.946;2022-12-10T01:39:34;3.83;;;2.33;;
13439;SDS011;6792;57.698;11.946;2022-12-10T01:42:04;2.67;;;2.27;;
13439;SDS011;6792;57.698;11.946;2022-12-10T01:47:45;6.40;;;2.23;;
13439;SDS011;6792;57.698;11.946;2022-12-10T01:50:17;2.87;;;2.00;;
13439;SDS011;6792;57.698;11.946;2022-12-10T01:52:46;2.80;;;2.13;;
13439;SDS011;6792;57.698;11.946;2022-12-10T01:55:39;2.87;;;2.07;;
13439;SDS011;6792;57.698;11.946;2022-12-10T01:58:11;3.10;;;2.07;;
13439;SDS011;6792;57.698;11.946;2022-12-10T02:00:43;2.77;;;1.90;;
13439;SDS011;6792;57.698;11.946;2022-12-10T02:03:18;2.00;;;1.80;;
13439;SDS011;6792;57.698;11.946;2022-12-10T02:05:49;2.63;;;2.17;;
13439;SDS011;6792;57.698;11.946;2022-12-10T02:08:23;2.33;;;1.97;;
13439;SDS011;6792;57.698;11.946;2022-12-10T02:10:58;2.30;;;2.10;;
13439;SDS011;6792;57.698;11.946;2022-12-10T02:13:31;2.27;;;2.03;;
13439;SDS011;6792;57.698;11.946;2022-12-10T02:16:04;2.67;;;2.30;;
13439;SDS011;6792;57.698;11.946;2022-12-10T02:18:37;2.83;;;2.43;;
13439;SDS011;6792;57.698;11.946;2022-12-10T02:21:19;3.87;;;1.83;;
13439;SDS011;6792;57.698;11.946;2022-12-10T02:23:51;2.73;;;2.10;;
13439;SDS011;6792;57.698;11.946;2022-12-10T02:26:23;2.93;;;1.90;;
13439;SDS011;6792;57.698;11.946;2022-12-10T02:29:01;2.40;;;1.70;;
13439;SDS011;6792;57.698;11.946;2022-12-10T02:31:34;2.13;;;1.70;;
13439;SDS011;6792;57.698;11.946;2022-12-10T02:34:04;2.70;;;2.00;;
13439;SDS011;6792;57.698;11.946;2022-12-10T02:36:37;6.93;;;1.90;;
13439;SDS011;6792;57.698;11.946;2022-12-10T02:39:09;2.63;;;1.87;;
13439;SDS011;6792;57.698;11.946;2022-12-10T02:41:40;1.80;;;1.70;;
13439;SDS011;6792;57.698;11.946;2022-12-10T02:44:12;1.90;;;1.70;;
13439;SDS011;6792;57.698;11.946;2022-12-10T02:46:44;1.97;;;1.57;;
13439;SDS011;6792;57.698;11.946;2022-12-10T02:49:17;2.00;;;1.80;;
13439;SDS011;6792;57.698;11.946;2022-12-10T02:51:47;2.07;;;1.87;;
13439;SDS011;6792;57.698;11.946;2022-12-10T02:54:36;2.00;;;1.80;;
13439;SDS011;6792;57.698;11.946;2022-12-10T02:57:15;2.10;;;1.87;;
13439;SDS011;6792;57.698;11.946;2022-12-10T02:59:57;2.57;;;1.63;;
13439;SDS011;6792;57.698;11.946;2022-12-10T03:02:43;2.33;;;1.70;;
13439;SDS011;6792;57.698;11.946;2022-12-10T03:05:18;2.53;;;1.97;;
13439;SDS011;6792;57.698;11.946;2022-12-10T03:07:50;1.70;;;1.40;;
13439;SDS011;6792;57.698;11.946;2022-12-10T03:10:24;1.73;;;1.60;;
13439;SDS011;6792;57.698;11.946;2022-12-10T03:12:57;2.43;;;1.87;;
13439;SDS011;6792;57.698;11.946;2022-12-10T03:15:29;2.23;;;1.77;;
13439;SDS011;6792;57.698;11.946;2022-12-10T03:18:00;1.90;;;1.70;;
13439;SDS011;6792;57.698;11.946;2022-12-10T03:20:37;1.93;;;1.73;;
13439;SDS011;6792;57.698;11.946;2022-12-10T03:23:09;2.33;;;2.00;;
13439;SDS011;6792;57.698;11.946;2022-12-10T03:25:40;2.87;;;1.87;;
13439;SDS011;6792;57.698;11.946;2022-12-10T03:28:11;2.70;;;1.97;;
13439;SDS011;6792;57.698;11.946;2022-12-10T03:30:42;2.43;;;1.80;;
13439;SDS011;6792;57.698;11.946;2022-12-10T03:33:13;2.70;;;1.93;;
13439;SDS011;6792;57.698;11.946;2022-12-10T03:35:43;2.63;;;1.87;;
13439;SDS011;6792;57.698;11.946;2022-12-10T03:38:12;2.83;;;2.20;;
13439;SDS011;6792;57.698;11.946;2022-12-10T03:40:42;3.70;;;2.10;;
13439;SDS011;6792;57.698;11.946;2022-12-10T03:43:12;5.10;;;2.30;;
13439;SDS011;6792;57.698;11.946;2022-12-10T03:45:42;3.20;;;2.07;;
13439;SDS011;6792;57.698;11.946;2022-12-10T03:48:11;2.27;;;1.90;;
13439;SDS011;6792;57.698;11.946;2022-12-10T03:50:40;2.43;;;1.80;;
13439;SDS011;6792;57.698;11.946;2022-12-10T03:53:10;3.60;;;2.20;;
13439;SDS011;6792;57.698;11.946;2022-12-10T03:55:39;2.97;;;2.13;;
13439;SDS011;6792;57.698;11.946;2022-12-10T03:58:08;2.67;;;2.00;;
13439;SDS011;6792;57.698;11.946;2022-12-10T04:00:37;3.13;;;2.30;;
13439;SDS011;6792;57.698;11.946;2022-12-10T04:03:07;3.33;;;1.90;;
13439;SDS011;6792;57.698;11.946;2022-12-10T04:05:36;2.70;;;2.13;;
13439;SDS011;6792;57.698;11.946;2022-12-10T04:08:06;4.27;;;1.90;;
13439;SDS011;6792;57.698;11.946;2022-12-10T04:10:35;2.87;;;2.10;;
13439;SDS011;6792;57.698;11.946;2022-12-10T04:13:05;2.77;;;2.20;;
13439;SDS011;6792;57.698;11.946;2022-12-10T04:15:52;4.13;;;2.23;;
13439;SDS011;6792;57.698;11.946;2022-12-10T04:18:40;3.57;;;2.10;;
13439;SDS011;6792;57.698;11.946;2022-12-10T04:21:09;2.83;;;2.30;;
13439;SDS011;6792;57.698;11.946;2022-12-10T04:23:56;2.03;;;1.80;;
13439;SDS011;6792;57.698;11.946;2022-12-10T04:26:43;2.43;;;2.00;;
13439;SDS011;6792;57.698;11.946;2022-12-10T04:29:22;2.67;;;1.90;;
13439;SDS011;6792;57.698;11.946;2022-12-10T04:31:53;2.53;;;1.93;;
13439;SDS011;6792;57.698;11.946;2022-12-10T04:34:23;2.67;;;2.00;;
13439;SDS011;6792;57.698;11.946;2022-12-10T04:36:52;4.03;;;2.03;;
13439;SDS011;6792;57.698;11.946;2022-12-10T04:39:22;3.37;;;2.27;;
13439;SDS011;6792;57.698;11.946;2022-12-10T04:41:51;3.27;;;1.97;;
13439;SDS011;6792;57.698;11.946;2022-12-10T04:44:20;2.90;;;1.93;;
13439;SDS011;6792;57.698;11.946;2022-12-10T04:46:50;2.50;;;2.00;;
13439;SDS011;6792;57.698;11.946;2022-12-10T04:49:19;3.20;;;2.00;;
13439;SDS011;6792;57.698;11.946;2022-12-10T04:51:48;2.33;;;2.00;;
13439;SDS011;6792;57.698;11.946;2022-12-10T04:54:19;2.83;;;2.20;;
13439;SDS011;6792;57.698;11.946;2022-12-10T04:56:49;2.07;;;1.87;;
13439;SDS011;6792;57.698;11.946;2022-12-10T04:59:18;2.27;;;2.00;;
13439;SDS011;6792;57.698;11.946;2022-12-10T05:01:47;3.70;;;2.33;;
13439;SDS011;6792;57.698;11.946;2022-12-10T05:04:17;3.30;;;2.10;;
13439;SDS011;6792;57.698;11.946;2022-12-10T05:06:48;3.20;;;2.23;;
13439;SDS011;6792;57.698;11.946;2022-12-10T05:09:17;2.30;;;2.10;;
13439;SDS011;6792;57.698;11.946;2022-12-10T05:11:46;2.37;;;2.10;;
13439;SDS011;6792;57.698;11.946;2022-12-10T05:14:16;2.33;;;1.80;;
13439;SDS011;6792;57.698;11.946;2022-12-10T05:16:45;1.67;;;1.57;;
13439;SDS011;6792;57.698;11.946;2022-12-10T05:19:17;2.13;;;1.67;;
13439;SDS011;6792;57.698;11.946;2022-12-10T05:21:48;4.60;;;2.17;;
13439;SDS011;6792;57.698;11.946;2022-12-10T05:24:35;3.50;;;2.17;;
13439;SDS011;6792;57.698;11.946;2022-12-10T05:27:05;2.47;;;1.90;;
13439;SDS011;6792;57.698;11.946;2022-12-10T05:29:34;3.93;;;2.03;;
13439;SDS011;6792;57.698;11.946;2022-12-10T05:32:03;3.37;;;2.40;;
13439;SDS011;6792;57.698;11.946;2022-12-10T05:34:33;2.30;;;1.97;;
13439;SDS011;6792;57.698;11.946;2022-12-10T05:37:02;2.07;;;1.80;;
13439;SDS011;6792;57.698;11.946;2022-12-10T05:39:31;2.70;;;1.90;;
13439;SDS011;6792;57.698;11.946;2022-12-10T05:42:03;2.10;;;1.63;;
13439;SDS011;6792;57.698;11.946;2022-12-10T05:44:35;2.73;;;1.83;;
13439;SDS011;6792;57.698;11.946;2022-12-10T05:47:05;3.67;;;2.10;;
13439;SDS011;6792;57.698;11.946;2022-12-10T05:49:34;3.13;;;1.60;;
13439;SDS011;6792;57.698;11.946;2022-12-10T05:52:03;2.60;;;2.20;;
13439;SDS011;6792;57.698;11.946;2022-12-10T05:54:32;2.33;;;2.03;;
13439;SDS011;6792;57.698;11.946;2022-12-10T05:57:04;2.47;;;1.97;;
13439;SDS011;6792;57.698;11.946;2022-12-10T05:59:33;1.63;;;1.50;;
13439;SDS011;6792;57.698;11.946;2022-12-10T06:02:05;2.63;;;1.90;;
13439;SDS011;6792;57.698;11.946;2022-12-10T06:04:34;3.23;;;1.97;;
13439;SDS011;6792;57.698;11.946;2022-12-10T06:07:04;2.03;;;1.70;;
13439;SDS011;6792;57.698;11.946;2022-12-10T06:09:33;2.53;;;1.87;;
13439;SDS011;6792;57.698;11.946;2022-12-10T06:12:04;2.20;;;2.00;;
13439;SDS011;6792;57.698;11.946;2022-12-10T06:14:34;1.87;;;1.70;;
13439;SDS011;6792;57.698;11.946;2022-12-10T06:17:03;2.87;;;2.17;;
13439;SDS011;6792;57.698;11.946;2022-12-10T06:19:34;3.23;;;2.93;;
13439;SDS011;6792;57.698;11.946;2022-12-10T06:22:03;2.30;;;2.10;;
13439;SDS011;6792;57.698;11.946;2022-12-10T06:24:33;2.27;;;2.03;;
13439;SDS011;6792;57.698;11.946;2022-12-10T06:27:04;2.93;;;2.10;;
13439;SDS011;6792;57.698;11.946;2022-12-10T06:29:32;2.77;;;2.30;;
13439;SDS011;6792;57.698;11.946;2022-12-10T06:32:01;3.30;;;2.00;;
13439;SDS011;6792;57.698;11.946;2022-12-10T06:34:34;1.73;;;1.60;;
13439;SDS011;6792;57.698;11.946;2022-12-10T06:37:06;1.80;;;1.60;;
13439;SDS011;6792;57.698;11.946;2022-12-10T06:39:35;2.10;;;1.90;;
13439;SDS011;6792;57.698;11.946;2022-12-10T06:42:04;2.37;;;2.03;;
13439;SDS011;6792;57.698;11.946;2022-12-10T06:44:34;2.53;;;1.73;;
13439;SDS011;6792;57.698;11.946;2022-12-10T06:47:04;1.87;;;1.50;;
13439;SDS011;6792;57.698;11.946;2022-12-10T06:49:33;3.20;;;2.03;;
13439;SDS011;6792;57.698;11.946;2022-12-10T06:52:04;2.03;;;1.80;;
13439;SDS011;6792;57.698;11.946;2022-12-10T06:54:34;3.17;;;2.13;;
13439;SDS011;6792;57.698;11.946;2022-12-10T06:57:03;1.97;;;1.70;;
13439;SDS011;6792;57.698;11.946;2022-12-10T06:59:32;2.80;;;1.70;;
13439;SDS011;6792;57.698;11.946;2022-12-10T07:02:01;3.90;;;1.70;;
13439;SDS011;6792;57.698;11.946;2022-12-10T07:04:31;2.17;;;1.60;;
13439;SDS011;6792;57.698;11.946;2022-12-10T07:07:02;2.20;;;1.57;;
13439;SDS011;6792;57.698;11.946;2022-12-10T07:09:32;3.90;;;2.40;;
13439;SDS011;6792;57.698;11.946;2022-12-10T07:12:02;2.60;;;1.80;;
13439;SDS011;6792;57.698;11.946;2022-12-10T07:14:32;2.10;;;1.90;;
13439;SDS011;6792;57.698;11.946;2022-12-10T07:17:01;3.00;;;2.10;;
13439;SDS011;6792;57.698;11.946;2022-12-10T07:19:33;3.20;;;2.07;;
13439;SDS011;6792;57.698;11.946;2022-12-10T07:22:03;2.77;;;2.20;;
13439;SDS011;6792;57.698;11.946;2022-12-10T07:24:33;2.93;;;1.87;;
13439;SDS011;6792;57.698;11.946;2022-12-10T07:27:06;3.93;;;2.10;;
13439;SDS011;6792;57.698;11.946;2022-12-10T07:29:36;2.73;;;2.13;;
13439;SDS011;6792;57.698;11.946;2022-12-10T07:32:05;3.07;;;1.57;;
13439;SDS011;6792;57.698;11.946;2022-12-10T07:34:34;2.60;;;1.90;;
13439;SDS011;6792;57.698;11.946;2022-12-10T07:37:03;4.67;;;1.97;;
13439;SDS011;6792;57.698;11.946;2022-12-10T07:39:33;2.00;;;1.77;;
13439;SDS011;6792;57.698;11.946;2022-12-10T07:42:05;3.17;;;2.17;;
13439;SDS011;6792;57.698;11.946;2022-12-10T07:44:34;1.90;;;1.70;;
13439;SDS011;6792;57.698;11.946;2022-12-10T07:47:03;1.77;;;1.60;;
13439;SDS011;6792;57.698;11.946;2022-12-10T07:49:32;3.03;;;2.10;;
13439;SDS011;6792;57.698;11.946;2022-12-10T07:52:01;5.30;;;2.50;;
13439;SDS011;6792;57.698;11.946;2022-12-10T07:54:31;3.53;;;1.87;;
13439;SDS011;6792;57.698;11.946;2022-12-10T07:57:00;2.47;;;1.77;;
13439;SDS011;6792;57.698;11.946;2022-12-10T07:59:30;3.63;;;2.70;;
13439;SDS011;6792;57.698;11.946;2022-12-10T08:01:59;3.33;;;2.53;;
13439;SDS011;6792;57.698;11.946;2022-12-10T08:04:28;2.97;;;2.07;;
13439;SDS011;6792;57.698;11.946;2022-12-10T08:06:57;4.87;;;2.33;;
13439;SDS011;6792;57.698;11.946;2022-12-10T08:09:26;3.87;;;2.03;;
13439;SDS011;6792;57.698;11.946;2022-12-10T08:11:55;4.03;;;2.53;;
13439;SDS011;6792;57.698;11.946;2022-12-10T08:14:25;2.80;;;2.00;;
13439;SDS011;6792;57.698;11.946;2022-12-10T08:16:54;3.53;;;2.00;;
13439;SDS011;6792;57.698;11.946;2022-12-10T08:19:23;2.63;;;1.90;;
13439;SDS011;6792;57.698;11.946;2022-12-10T08:21:52;2.33;;;2.07;;
13439;SDS011;6792;57.698;11.946;2022-12-10T08:24:21;5.73;;;2.40;;
13439;SDS011;6792;57.698;11.946;2022-12-10T08:26:50;3.93;;;2.70;;
13439;SDS011;6792;57.698;11.946;2022-12-10T08:29:19;3.10;;;2.10;;
13439;SDS011;6792;57.698;11.946;2022-12-10T08:31:49;2.63;;;2.20;;
13439;SDS011;6792;57.698;11.946;2022-12-10T08:34:19;4.40;;;2.27;;
13439;SDS011;6792;57.698;11.946;2022-12-10T08:36:48;3.10;;;2.23;;
13439;SDS011;6792;57.698;11.946;2022-12-10T08:39:17;3.20;;;2.30;;
13439;SDS011;6792;57.698;11.946;2022-12-10T08:41:46;3.97;;;2.20;;
13439;SDS011;6792;57.698;11.946;2022-12-10T08:44:15;3.07;;;2.20;;
13439;SDS011;6792;57.698;11.946;2022-12-10T08:46:44;4.40;;;2.00;;
13439;SDS011;6792;57.698;11.946;2022-12-10T08:49:13;2.73;;;2.10;;
13439;SDS011;6792;57.698;11.946;2022-12-10T08:51:43;2.63;;;2.10;;
13439;SDS011;6792;57.698;11.946;2022-12-10T08:54:13;4.43;;;2.70;;
13439;SDS011;6792;57.698;11.946;2022-12-10T08:56:42;3.30;;;2.20;;
13439;SDS011;6792;57.698;11.946;2022-12-10T08:59:11;3.40;;;2.20;;
13439;SDS011;6792;57.698;11.946;2022-12-10T09:01:40;5.57;;;2.80;;
13439;SDS011;6792;57.698;11.946;2022-12-10T09:04:09;4.03;;;2.90;;
13439;SDS011;6792;57.698;11.946;2022-12-10T09:06:39;2.93;;;2.53;;
13439;SDS011;6792;57.698;11.946;2022-12-10T09:09:08;3.73;;;2.70;;
13439;SDS011;6792;57.698;11.946;2022-12-10T09:11:37;4.07;;;2.37;;
13439;SDS011;6792;57.698;11.946;2022-12-10T09:14:06;2.93;;;2.37;;
13439;SDS011;6792;57.698;11.946;2022-12-10T09:16:36;4.03;;;2.80;;
13439;SDS011;6792;57.698;11.946;2022-12-10T09:19:06;3.20;;;2.37;;
13439;SDS011;6792;57.698;11.946;2022-12-10T09:21:35;3.77;;;2.53;;
13439;SDS011;6792;57.698;11.946;2022-12-10T09:24:05;3.80;;;2.60;;
13439;SDS011;6792;57.698;11.946;2022-12-10T09:26:36;4.47;;;2.80;;
13439;SDS011;6792;57.698;11.946;2022-12-10T09:29:05;4.70;;;3.10;;
13439;SDS011;6792;57.698;11.946;2022-12-10T09:31:34;6.53;;;3.33;;
13439;SDS011;6792;57.698;11.946;2022-12-10T09:34:03;3.93;;;2.57;;
13439;SDS011;6792;57.698;11.946;2022-12-10T09:36:36;4.33;;;2.53;;
13439;SDS011;6792;57.698;11.946;2022-12-10T09:39:05;3.13;;;2.30;;
13439;SDS011;6792;57.698;11.946;2022-12-10T09:41:40;3.57;;;2.37;;
13439;SDS011;6792;57.698;11.946;2022-12-10T09:44:15;4.40;;;2.90;;
13439;SDS011;6792;57.698;11.946;2022-12-10T09:46:48;5.07;;;2.83;;
13439;SDS011;6792;57.698;11.946;2022-12-10T09:49:23;4.23;;;3.07;;
13439;SDS011;6792;57.698;11.946;2022-12-10T09:51:54;5.07;;;2.73;;
13439;SDS011;6792;57.698;11.946;2022-12-10T09:54:26;4.60;;;2.83;;
13439;SDS011;6792;57.698;11.946;2022-12-10T09:56:57;3.43;;;2.70;;
13439;SDS011;6792;57.698;11.946;2022-12-10T09:59:31;4.43;;;2.70;;
13439;SDS011;6792;57.698;11.946;2022-12-10T10:02:11;3.27;;;2.63;;
13439;SDS011;6792;57.698;11.946;2022-12-10T10:04:42;4.77;;;2.73;;
13439;SDS011;6792;57.698;11.946;2022-12-10T10:07:11;4.67;;;3.07;;
13439;SDS011;6792;57.698;11.946;2022-12-10T10:09:50;3.00;;;2.60;;
13439;SDS011;6792;57.698;11.946;2022-12-10T10:12:25;3.43;;;2.70;;
13439;SDS011;6792;57.698;11.946;2022-12-10T10:14:56;4.70;;;3.07;;
13439;SDS011;6792;57.698;11.946;2022-12-10T10:17:27;3.90;;;2.73;;
13439;SDS011;6792;57.698;11.946;2022-12-10T10:20:00;5.73;;;3.00;;
13439;SDS011;6792;57.698;11.946;2022-12-10T10:22:31;6.27;;;3.70;;
13439;SDS011;6792;57.698;11.946;2022-12-10T10:25:00;4.33;;;2.77;;
13439;SDS011;6792;57.698;11.946;2022-12-10T10:27:30;3.97;;;3.13;;
13439;SDS011;6792;57.698;11.946;2022-12-10T10:30:01;5.47;;;3.57;;
13439;SDS011;6792;57.698;11.946;2022-12-10T10:32:45;6.47;;;3.50;;
13439;SDS011;6792;57.698;11.946;2022-12-10T10:35:25;5.53;;;3.37;;
13439;SDS011;6792;57.698;11.946;2022-12-10T10:37:57;4.87;;;3.10;;
13439;SDS011;6792;57.698;11.946;2022-12-10T10:40:30;5.40;;;2.77;;
13439;SDS011;6792;57.698;11.946;2022-12-10T10:43:06;4.50;;;2.97;;
13439;SDS011;6792;57.698;11.946;2022-12-10T10:45:48;5.13;;;3.50;;
13439;SDS011;6792;57.698;11.946;2022-12-10T10:48:22;4.97;;;2.87;;
13439;SDS011;6792;57.698;11.946;2022-12-10T10:50:53;3.77;;;2.70;;
13439;SDS011;6792;57.698;11.946;2022-12-10T10:53:29;3.87;;;3.00;;
13439;SDS011;6792;57.698;11.946;2022-12-10T10:56:00;4.40;;;2.93;;
13439;SDS011;6792;57.698;11.946;2022-12-10T10:58:35;4.33;;;3.00;;
13439;SDS011;6792;57.698;11.946;2022-12-10T11:01:07;4.33;;;3.37;;
13439;SDS011;6792;57.698;11.946;2022-12-10T11:03:36;4.63;;;3.37;;
13439;SDS011;6792;57.698;11.946;2022-12-10T11:06:08;4.70;;;3.50;;
13439;SDS011;6792;57.698;11.946;2022-12-10T11:08:39;4.57;;;3.10;;
13439;SDS011;6792;57.698;11.946;2022-12-10T11:11:12;4.83;;;3.20;;
13439;SDS011;6792;57.698;11.946;2022-12-10T11:13:43;3.87;;;3.03;;
13439;SDS011;6792;57.698;11.946;2022-12-10T11:16:16;3.33;;;2.70;;
13439;SDS011;6792;57.698;11.946;2022-12-10T11:18:55;3.33;;;3.03;;
13439;SDS011;6792;57.698;11.946;2022-12-10T11:21:28;4.13;;;3.17;;
13439;SDS011;6792;57.698;11.946;2022-12-10T11:24:00;4.07;;;2.77;;
13439;SDS011;6792;57.698;11.946;2022-12-10T11:26:37;4.23;;;3.23;;
13439;SDS011;6792;57.698;11.946;2022-12-10T11:29:35;3.67;;;2.97;;
13439;SDS011;6792;57.698;11.946;2022-12-10T11:32:13;4.17;;;2.83;;
13439;SDS011;6792;57.698;11.946;2022-12-10T11:34:57;5.00;;;2.90;;
13439;SDS011;6792;57.698;11.946;2022-12-10T11:37:23;4.03;;;3.00;;
13439;SDS011;6792;57.698;11.946;2022-12-10T11:40:00;5.50;;;3.23;;
13439;SDS011;6792;57.698;11.946;2022-12-10T11:42:35;3.73;;;2.90;;
13439;SDS011;6792;57.698;11.946;2022-12-10T11:45:09;4.00;;;3.30;;
13439;SDS011;6792;57.698;11.946;2022-12-10T11:47:43;6.60;;;3.33;;
13439;SDS011;6792;57.698;11.946;2022-12-10T11:50:20;4.93;;;3.17;;
13439;SDS011;6792;57.698;11.946;2022-12-10T11:53:07;4.83;;;3.00;;
13439;SDS011;6792;57.698;11.946;2022-12-10T11:55:54;5.97;;;3.37;;
13439;SDS011;6792;57.698;11.946;2022-12-10T11:58:36;5.83;;;3.47;;
13439;SDS011;6792;57.698;11.946;2022-12-10T12:01:13;3.03;;;2.67;;
13439;SDS011;6792;57.698;11.946;2022-12-10T12:03:46;4.27;;;3.20;;
13439;SDS011;6792;57.698;11.946;2022-12-10T12:09:44;4.13;;;3.00;;
13439;SDS011;6792;57.698;11.946;2022-12-10T12:12:19;3.33;;;2.70;;
13439;SDS011;6792;57.698;11.946;2022-12-10T12:14:53;4.53;;;2.97;;
13439;SDS011;6792;57.698;11.946;2022-12-10T12:17:26;3.47;;;2.90;;
13439;SDS011;6792;57.698;11.946;2022-12-10T12:19:58;4.80;;;2.83;;
13439;SDS011;6792;57.698;11.946;2022-12-10T12:22:37;4.03;;;2.67;;
13439;SDS011;6792;57.698;11.946;2022-12-10T12:25:14;3.73;;;2.57;;
13439;SDS011;6792;57.698;11.946;2022-12-10T12:27:45;4.60;;;3.13;;
13439;SDS011;6792;57.698;11.946;2022-12-10T12:30:17;3.37;;;2.60;;
13439;SDS011;6792;57.698;11.946;2022-12-10T12:32:49;4.17;;;2.87;;
13439;SDS011;6792;57.698;11.946;2022-12-10T12:35:21;4.40;;;2.90;;
13439;SDS011;6792;57.698;11.946;2022-12-10T12:37:54;3.90;;;3.17;;
13439;SDS011;6792;57.698;11.946;2022-12-10T12:40:28;4.97;;;3.00;;
13439;SDS011;6792;57.698;11.946;2022-12-10T12:43:01;5.17;;;3.50;;
13439;SDS011;6792;57.698;11.946;2022-12-10T12:45:33;4.77;;;3.10;;
13439;SDS011;6792;57.698;11.946;2022-12-10T12:48:11;5.60;;;2.97;;
13439;SDS011;6792;57.698;11.946;2022-12-10T12:50:47;3.53;;;3.23;;
13439;SDS011;6792;57.698;11.946;2022-12-10T12:53:22;5.40;;;3.87;;
13439;SDS011;6792;57.698;11.946;2022-12-10T12:55:55;6.47;;;3.57;;
13439;SDS011;6792;57.698;11.946;2022-12-10T12:58:31;6.37;;;4.03;;
13439;SDS011;6792;57.698;11.946;2022-12-10T13:01:10;6.00;;;4.10;;
13439;SDS011;6792;57.698;11.946;2022-12-10T13:03:44;6.97;;;4.33;;
13439;SDS011;6792;57.698;11.946;2022-12-10T13:06:16;8.13;;;4.50;;
13439;SDS011;6792;57.698;11.946;2022-12-10T13:08:49;8.30;;;4.00;;
13439;SDS011;6792;57.698;11.946;2022-12-10T13:11:29;5.90;;;3.83;;
13439;SDS011;6792;57.698;11.946;2022-12-10T13:17:23;6.03;;;3.60;;
13439;SDS011;6792;57.698;11.946;2022-12-10T13:22:55;8.77;;;4.27;;
13439;SDS011;6792;57.698;11.946;2022-12-10T13:25:38;7.07;;;4.57;;
13439;SDS011;6792;57.698;11.946;2022-12-10T13:28:26;9.23;;;5.00;;
13439;SDS011;6792;57.698;11.946;2022-12-10T13:34:36;11.27;;;5.30;;
13439;SDS011;6792;57.698;11.946;2022-12-10T13:37:13;7.63;;;4.70;;
13439;SDS011;6792;57.698;11.946;2022-12-10T13:39:52;8.87;;;4.80;;
13439;SDS011;6792;57.698;11.946;2022-12-10T13:42:28;11.23;;;5.33;;
13439;SDS011;6792;57.698;11.946;2022-12-10T13:45:25;8.10;;;4.70;;
13439;SDS011;6792;57.698;11.946;2022-12-10T13:51:11;5.43;;;3.73;;
13439;SDS011;6792;57.698;11.946;2022-12-10T13:57:17;6.53;;;4.57;;
13439;SDS011;6792;57.698;11.946;2022-12-10T13:59:55;9.00;;;4.30;;
13439;SDS011;6792;57.698;11.946;2022-12-10T14:02:32;8.53;;;4.57;;
13439;SDS011;6792;57.698;11.946;2022-12-10T14:05:13;7.90;;;5.10;;
13439;SDS011;6792;57.698;11.946;2022-12-10T14:07:57;8.37;;;4.73;;
13439;SDS011;6792;57.698;11.946;2022-12-10T14:10:31;7.20;;;4.40;;
13439;SDS011;6792;57.698;11.946;2022-12-10T14:13:04;9.33;;;4.47;;
13439;SDS011;6792;57.698;11.946;2022-12-10T14:15:34;6.83;;;4.87;;
13439;SDS011;6792;57.698;11.946;2022-12-10T14:18:08;8.80;;;4.90;;
13439;SDS011;6792;57.698;11.946;2022-12-10T14:20:49;7.53;;;4.37;;
13439;SDS011;6792;57.698;11.946;2022-12-10T14:23:22;9.53;;;5.53;;
13439;SDS011;6792;57.698;11.946;2022-12-10T14:26:10;8.20;;;4.30;;
13439;SDS011;6792;57.698;11.946;2022-12-10T14:28:43;8.60;;;4.60;;
13439;SDS011;6792;57.698;11.946;2022-12-10T14:31:15;7.43;;;4.53;;
13439;SDS011;6792;57.698;11.946;2022-12-10T14:33:46;5.87;;;4.20;;
13439;SDS011;6792;57.698;11.946;2022-12-10T14:36:19;6.47;;;3.83;;
13439;SDS011;6792;57.698;11.946;2022-12-10T14:38:51;6.20;;;3.90;;
13439;SDS011;6792;57.698;11.946;2022-12-10T14:41:21;6.30;;;4.50;;
13439;SDS011;6792;57.698;11.946;2022-12-10T14:43:54;8.37;;;4.60;;
13439;SDS011;6792;57.698;11.946;2022-12-10T14:46:25;7.07;;;4.13;;
13439;SDS011;6792;57.698;11.946;2022-12-10T14:48:57;6.03;;;3.73;;
13439;SDS011;6792;57.698;11.946;2022-12-10T14:51:31;8.47;;;4.97;;
13439;SDS011;6792;57.698;11.946;2022-12-10T14:54:02;5.57;;;3.87;;
13439;SDS011;6792;57.698;11.946;2022-12-10T14:56:34;7.10;;;4.90;;
13439;SDS011;6792;57.698;11.946;2022-12-10T14:59:06;8.07;;;4.40;;
13439;SDS011;6792;57.698;11.946;2022-12-10T15:01:38;9.17;;;4.50;;
13439;SDS011;6792;57.698;11.946;2022-12-10T15:04:15;6.37;;;3.93;;
13439;SDS011;6792;57.698;11.946;2022-12-10T15:06:48;7.27;;;4.80;;
13439;SDS011;6792;57.698;11.946;2022-12-10T15:09:19;8.30;;;4.30;;
13439;SDS011;6792;57.698;11.946;2022-12-10T15:11:53;6.60;;;4.23;;
13439;SDS011;6792;57.698;11.946;2022-12-10T15:14:23;10.20;;;4.87;;
13439;SDS011;6792;57.698;11.946;2022-12-10T15:17:00;6.73;;;4.17;;
13439;SDS011;6792;57.698;11.946;2022-12-10T15:19:32;8.47;;;4.70;;
13439;SDS011;6792;57.698;11.946;2022-12-10T15:22:16;6.70;;;4.07;;
13439;SDS011;6792;57.698;11.946;2022-12-10T15:24:54;7.83;;;5.20;;
13439;SDS011;6792;57.698;11.946;2022-12-10T15:27:24;7.50;;;4.53;;
13439;SDS011;6792;57.698;11.946;2022-12-10T15:29:54;8.37;;;5.07;;
13439;SDS011;6792;57.698;11.946;2022-12-10T15:32:24;8.63;;;4.80;;
13439;SDS011;6792;57.698;11.946;2022-12-10T15:34:55;9.07;;;4.83;;
13439;SDS011;6792;57.698;11.946;2022-12-10T15:37:33;8.43;;;4.83;;
13439;SDS011;6792;57.698;11.946;2022-12-10T15:40:07;7.87;;;4.73;;
13439;SDS011;6792;57.698;11.946;2022-12-10T15:42:45;6.60;;;4.40;;